sensor_id;sensor_type;location;lat;lon;timestamp;P1;durP1;ratioP1;P2;durP2;ratioP2
42146;SDS011;27815;43.410;11.852;2024-01-30T00:02:47;6.07;;;3.67;;
42146;SDS011;27815;43.410;11.852;2024-01-30T00:12:20;11.43;;;5.88;;
42146;SDS011;27815;43.410;11.852;2024-01-30T00:16:30;11.80;;;6.05;;
42146;SDS011;27815;43.410;11.852;2024-01-30T00:20:59;12.32;;;6.47;;
42146;SDS011;27815;43.410;11.852;2024-01-30T00:25:55;8.10;;;4.10;;
42146;SDS011;27815;43.410;11.852;2024-01-30T00:36:22;9.00;;;4.50;;
42146;SDS011;27815;43.410;11.852;2024-01-30T00:40:54;10.32;;;5.35;;
42146;SDS011;27815;43.410;11.852;2024-01-30T00:45:37;10.20;;;5.97;;
42146;SDS011;27815;43.410;11.852;2024-01-30T00:49:50;6.38;;;2.42;;
42146;SDS011;27815;43.410;11.852;2024-01-30T00:54:35;4.03;;;1.90;;
42146;SDS011;27815;43.410;11.852;2024-01-30T00:58:53;3.75;;;1.92;;
42146;SDS011;27815;43.410;11.852;2024-01-30T01:04:10;5.55;;;2.20;;
42146;SDS011;27815;43.410;11.852;2024-01-30T01:08:53;4.15;;;2.10;;
42146;SDS011;27815;43.410;11.852;2024-01-30T01:13:24;3.97;;;2.08;;
42146;SDS011;27815;43.410;11.852;2024-01-30T01:17:29;5.88;;;3.08;;
42146;SDS011;27815;43.410;11.852;2024-01-30T01:21:37;7.80;;;4.20;;
42146;SDS011;27815;43.410;11.852;2024-01-30T01:25:53;5.97;;;3.22;;
42146;SDS011;27815;43.410;11.852;2024-01-30T01:30:02;8.60;;;4.28;;
42146;SDS011;27815;43.410;11.852;2024-01-30T01:34:16;9.95;;;4.50;;
42146;SDS011;27815;43.410;11.852;2024-01-30T01:38:59;6.93;;;3.40;;
42146;SDS011;27815;43.410;11.852;2024-01-30T01:43:51;7.53;;;3.35;;
42146;SDS011;27815;43.410;11.852;2024-01-30T01:48:08;5.88;;;3.30;;
42146;SDS011;27815;43.410;11.852;2024-01-30T01:52:20;9.13;;;4.55;;
42146;SDS011;27815;43.410;11.852;2024-01-30T01:56:42;7.97;;;3.80;;
42146;SDS011;27815;43.410;11.852;2024-01-30T02:01:22;9.40;;;5.00;;
42146;SDS011;27815;43.410;11.852;2024-01-30T02:05:45;8.43;;;4.18;;
42146;SDS011;27815;43.410;11.852;2024-01-30T02:10:54;10.45;;;5.63;;
42146;SDS011;27815;43.410;11.852;2024-01-30T02:15:13;12.80;;;7.25;;
42146;SDS011;27815;43.410;11.852;2024-01-30T02:20:39;8.95;;;5.28;;
42146;SDS011;27815;43.410;11.852;2024-01-30T02:24:56;7.60;;;3.38;;
42146;SDS011;27815;43.410;11.852;2024-01-30T02:30:17;5.85;;;2.70;;
42146;SDS011;27815;43.410;11.852;2024-01-30T02:35:39;4.95;;;2.33;;
42146;SDS011;27815;43.410;11.852;2024-01-30T02:41:12;5.18;;;2.30;;
42146;SDS011;27815;43.410;11.852;2024-01-30T02:45:23;6.80;;;3.90;;
42146;SDS011;27815;43.410;11.852;2024-01-30T02:49:48;7.00;;;4.13;;
42146;SDS011;27815;43.410;11.852;2024-01-30T02:54:03;13.77;;;6.10;;
42146;SDS011;27815;43.410;11.852;2024-01-30T02:58:14;11.30;;;6.40;;
42146;SDS011;27815;43.410;11.852;2024-01-30T03:02:25;8.73;;;5.22;;
42146;SDS011;27815;43.410;11.852;2024-01-30T03:06:38;9.05;;;5.07;;
42146;SDS011;27815;43.410;11.852;2024-01-30T03:10:44;8.02;;;4.45;;
42146;SDS011;27815;43.410;11.852;2024-01-30T03:14:49;9.00;;;5.18;;
42146;SDS011;27815;43.410;11.852;2024-01-30T03:18:59;11.25;;;5.57;;
42146;SDS011;27815;43.410;11.852;2024-01-30T03:23:18;10.73;;;4.82;;
42146;SDS011;27815;43.410;11.852;2024-01-30T03:27:30;6.70;;;2.90;;
42146;SDS011;27815;43.410;11.852;2024-01-30T03:31:41;6.03;;;2.65;;
42146;SDS011;27815;43.410;11.852;2024-01-30T03:36:09;5.45;;;2.53;;
42146;SDS011;27815;43.410;11.852;2024-01-30T03:40:19;5.15;;;2.58;;
42146;SDS011;27815;43.410;11.852;2024-01-30T03:45:08;12.48;;;4.07;;
42146;SDS011;27815;43.410;11.852;2024-01-30T03:50:01;11.27;;;4.88;;
42146;SDS011;27815;43.410;11.852;2024-01-30T03:54:53;13.15;;;7.82;;
42146;SDS011;27815;43.410;11.852;2024-01-30T03:59:50;11.37;;;5.10;;
42146;SDS011;27815;43.410;11.852;2024-01-30T04:04:53;7.17;;;3.60;;
42146;SDS011;27815;43.410;11.852;2024-01-30T04:10:35;5.25;;;3.28;;
42146;SDS011;27815;43.410;11.852;2024-01-30T04:16:03;8.00;;;4.13;;
42146;SDS011;27815;43.410;11.852;2024-01-30T04:21:14;6.00;;;2.72;;
42146;SDS011;27815;43.410;11.852;2024-01-30T04:25:59;11.52;;;5.75;;
42146;SDS011;27815;43.410;11.852;2024-01-30T04:31:03;7.75;;;4.05;;
42146;SDS011;27815;43.410;11.852;2024-01-30T04:36:36;6.00;;;3.10;;
42146;SDS011;27815;43.410;11.852;2024-01-30T04:41:59;7.55;;;3.08;;
42146;SDS011;27815;43.410;11.852;2024-01-30T04:46:10;6.07;;;4.03;;
42146;SDS011;27815;43.410;11.852;2024-01-30T04:50:15;6.32;;;3.40;;
42146;SDS011;27815;43.410;11.852;2024-01-30T04:54:23;12.95;;;6.70;;
42146;SDS011;27815;43.410;11.852;2024-01-30T04:58:29;11.43;;;6.18;;
42146;SDS011;27815;43.410;11.852;2024-01-30T05:02:38;9.30;;;4.75;;
42146;SDS011;27815;43.410;11.852;2024-01-30T05:06:57;9.45;;;3.80;;
42146;SDS011;27815;43.410;11.852;2024-01-30T05:11:05;12.23;;;6.25;;
42146;SDS011;27815;43.410;11.852;2024-01-30T05:15:15;9.20;;;5.60;;
42146;SDS011;27815;43.410;11.852;2024-01-30T05:19:48;12.23;;;7.25;;
42146;SDS011;27815;43.410;11.852;2024-01-30T05:23:56;12.70;;;6.93;;
42146;SDS011;27815;43.410;11.852;2024-01-30T05:28:08;9.20;;;5.35;;
42146;SDS011;27815;43.410;11.852;2024-01-30T05:32:57;12.95;;;7.10;;
42146;SDS011;27815;43.410;11.852;2024-01-30T05:37:23;9.98;;;4.85;;
42146;SDS011;27815;43.410;11.852;2024-01-30T05:41:29;8.38;;;3.97;;
42146;SDS011;27815;43.410;11.852;2024-01-30T05:45:33;10.57;;;5.00;;
42146;SDS011;27815;43.410;11.852;2024-01-30T05:54:16;8.65;;;4.68;;
42146;SDS011;27815;43.410;11.852;2024-01-30T05:58:19;6.85;;;4.05;;
42146;SDS011;27815;43.410;11.852;2024-01-30T06:02:36;8.93;;;4.80;;
42146;SDS011;27815;43.410;11.852;2024-01-30T06:06:56;11.07;;;5.72;;
42146;SDS011;27815;43.410;11.852;2024-01-30T06:11:16;7.53;;;4.47;;
42146;SDS011;27815;43.410;11.852;2024-01-30T06:15:20;14.15;;;6.75;;
42146;SDS011;27815;43.410;11.852;2024-01-30T06:20:25;9.35;;;5.03;;
42146;SDS011;27815;43.410;11.852;2024-01-30T06:24:39;13.07;;;7.90;;
42146;SDS011;27815;43.410;11.852;2024-01-30T06:28:43;13.60;;;7.53;;
42146;SDS011;27815;43.410;11.852;2024-01-30T06:32:46;7.53;;;3.85;;
42146;SDS011;27815;43.410;11.852;2024-01-30T06:36:53;10.95;;;5.03;;
42146;SDS011;27815;43.410;11.852;2024-01-30T06:40:56;14.15;;;6.60;;
42146;SDS011;27815;43.410;11.852;2024-01-30T06:44:59;7.93;;;3.50;;
42146;SDS011;27815;43.410;11.852;2024-01-30T06:49:02;7.88;;;3.78;;
42146;SDS011;27815;43.410;11.852;2024-01-30T06:53:05;10.63;;;6.25;;
42146;SDS011;27815;43.410;11.852;2024-01-30T06:57:08;10.98;;;5.63;;
42146;SDS011;27815;43.410;11.852;2024-01-30T07:01:14;8.83;;;4.60;;
42146;SDS011;27815;43.410;11.852;2024-01-30T07:05:18;9.07;;;3.97;;
42146;SDS011;27815;43.410;11.852;2024-01-30T07:09:22;11.18;;;5.28;;
42146;SDS011;27815;43.410;11.852;2024-01-30T07:13:27;15.82;;;8.80;;
42146;SDS011;27815;43.410;11.852;2024-01-30T07:17:33;8.95;;;5.03;;
42146;SDS011;27815;43.410;11.852;2024-01-30T07:21:38;16.38;;;8.15;;
42146;SDS011;27815;43.410;11.852;2024-01-30T07:25:43;10.68;;;7.00;;
42146;SDS011;27815;43.410;11.852;2024-01-30T07:29:50;15.20;;;9.75;;
42146;SDS011;27815;43.410;11.852;2024-01-30T07:33:54;17.27;;;9.27;;
42146;SDS011;27815;43.410;11.852;2024-01-30T07:37:57;15.65;;;8.35;;
42146;SDS011;27815;43.410;11.852;2024-01-30T07:42:01;18.92;;;9.85;;
42146;SDS011;27815;43.410;11.852;2024-01-30T07:46:08;24.30;;;13.40;;
42146;SDS011;27815;43.410;11.852;2024-01-30T07:50:11;21.50;;;10.93;;
42146;SDS011;27815;43.410;11.852;2024-01-30T07:54:15;21.73;;;12.38;;
42146;SDS011;27815;43.410;11.852;2024-01-30T07:58:18;18.50;;;10.25;;
42146;SDS011;27815;43.410;11.852;2024-01-30T08:02:23;15.98;;;9.23;;
42146;SDS011;27815;43.410;11.852;2024-01-30T08:06:26;17.15;;;11.88;;
42146;SDS011;27815;43.410;11.852;2024-01-30T08:10:29;23.35;;;13.93;;
42146;SDS011;27815;43.410;11.852;2024-01-30T08:14:34;24.05;;;14.48;;
42146;SDS011;27815;43.410;11.852;2024-01-30T08:18:39;25.08;;;14.50;;
42146;SDS011;27815;43.410;11.852;2024-01-30T08:22:54;23.13;;;14.98;;
42146;SDS011;27815;43.410;11.852;2024-01-30T08:26:57;25.70;;;14.32;;
42146;SDS011;27815;43.410;11.852;2024-01-30T08:31:00;26.30;;;15.35;;
42146;SDS011;27815;43.410;11.852;2024-01-30T08:35:04;27.30;;;16.30;;
42146;SDS011;27815;43.410;11.852;2024-01-30T08:39:13;21.98;;;14.63;;
42146;SDS011;27815;43.410;11.852;2024-01-30T08:43:17;20.90;;;14.55;;
42146;SDS011;27815;43.410;11.852;2024-01-30T08:47:21;25.45;;;14.65;;
42146;SDS011;27815;43.410;11.852;2024-01-30T08:51:24;23.15;;;14.95;;
42146;SDS011;27815;43.410;11.852;2024-01-30T08:55:28;20.85;;;11.90;;
42146;SDS011;27815;43.410;11.852;2024-01-30T08:59:36;23.42;;;14.82;;
42146;SDS011;27815;43.410;11.852;2024-01-30T09:04:12;20.70;;;14.45;;
42146;SDS011;27815;43.410;11.852;2024-01-30T09:08:20;24.77;;;14.93;;
42146;SDS011;27815;43.410;11.852;2024-01-30T09:12:27;25.67;;;17.35;;
42146;SDS011;27815;43.410;11.852;2024-01-30T09:16:45;24.67;;;15.82;;
42146;SDS011;27815;43.410;11.852;2024-01-30T09:20:54;23.80;;;15.27;;
42146;SDS011;27815;43.410;11.852;2024-01-30T09:24:58;26.42;;;16.25;;
42146;SDS011;27815;43.410;11.852;2024-01-30T09:29:32;26.57;;;16.03;;
42146;SDS011;27815;43.410;11.852;2024-01-30T09:37:54;25.20;;;14.77;;
42146;SDS011;27815;43.410;11.852;2024-01-30T09:52:19;22.27;;;13.68;;
42146;SDS011;27815;43.410;11.852;2024-01-30T09:56:25;25.13;;;14.45;;
42146;SDS011;27815;43.410;11.852;2024-01-30T10:00:28;21.55;;;13.50;;
42146;SDS011;27815;43.410;11.852;2024-01-30T10:04:35;28.15;;;15.80;;
42146;SDS011;27815;43.410;11.852;2024-01-30T10:08:53;21.73;;;15.02;;
42146;SDS011;27815;43.410;11.852;2024-01-30T10:12:58;23.40;;;13.23;;
42146;SDS011;27815;43.410;11.852;2024-01-30T10:17:07;16.13;;;9.38;;
42146;SDS011;27815;43.410;11.852;2024-01-30T10:21:35;15.55;;;10.35;;
42146;SDS011;27815;43.410;11.852;2024-01-30T10:25:42;22.80;;;12.35;;
42146;SDS011;27815;43.410;11.852;2024-01-30T10:29:48;18.75;;;11.15;;
42146;SDS011;27815;43.410;11.852;2024-01-30T10:33:51;16.42;;;9.50;;
42146;SDS011;27815;43.410;11.852;2024-01-30T10:38:16;14.20;;;7.55;;
42146;SDS011;27815;43.410;11.852;2024-01-30T10:42:24;11.90;;;7.40;;
42146;SDS011;27815;43.410;11.852;2024-01-30T10:46:30;19.15;;;9.90;;
42146;SDS011;27815;43.410;11.852;2024-01-30T10:50:35;15.73;;;9.48;;
42146;SDS011;27815;43.410;11.852;2024-01-30T10:55:09;14.20;;;9.65;;
42146;SDS011;27815;43.410;11.852;2024-01-30T10:59:16;14.13;;;8.85;;
42146;SDS011;27815;43.410;11.852;2024-01-30T11:03:20;11.60;;;8.60;;
42146;SDS011;27815;43.410;11.852;2024-01-30T11:07:26;15.23;;;9.53;;
42146;SDS011;27815;43.410;11.852;2024-01-30T11:11:31;10.60;;;7.95;;
42146;SDS011;27815;43.410;11.852;2024-01-30T11:15:37;12.63;;;7.68;;
42146;SDS011;27815;43.410;11.852;2024-01-30T11:19:42;14.35;;;8.32;;
42146;SDS011;27815;43.410;11.852;2024-01-30T11:23:45;11.75;;;8.30;;
42146;SDS011;27815;43.410;11.852;2024-01-30T11:27:49;12.77;;;7.95;;
42146;SDS011;27815;43.410;11.852;2024-01-30T11:31:54;14.00;;;9.35;;
42146;SDS011;27815;43.410;11.852;2024-01-30T11:35:58;13.93;;;8.75;;
42146;SDS011;27815;43.410;11.852;2024-01-30T11:40:02;13.40;;;8.32;;
42146;SDS011;27815;43.410;11.852;2024-01-30T11:44:06;14.80;;;9.55;;
42146;SDS011;27815;43.410;11.852;2024-01-30T11:48:11;12.70;;;8.45;;
42146;SDS011;27815;43.410;11.852;2024-01-30T11:52:15;15.45;;;9.80;;
42146;SDS011;27815;43.410;11.852;2024-01-30T11:56:19;17.40;;;10.73;;
42146;SDS011;27815;43.410;11.852;2024-01-30T12:00:22;14.00;;;10.07;;
42146;SDS011;27815;43.410;11.852;2024-01-30T12:04:29;14.13;;;9.75;;
42146;SDS011;27815;43.410;11.852;2024-01-30T12:08:32;14.45;;;9.27;;
42146;SDS011;27815;43.410;11.852;2024-01-30T12:12:36;13.88;;;9.38;;
42146;SDS011;27815;43.410;11.852;2024-01-30T12:16:39;14.52;;;10.45;;
42146;SDS011;27815;43.410;11.852;2024-01-30T12:20:56;11.38;;;7.43;;
42146;SDS011;27815;43.410;11.852;2024-01-30T12:25:01;15.70;;;9.68;;
42146;SDS011;27815;43.410;11.852;2024-01-30T12:29:04;13.98;;;8.82;;
42146;SDS011;27815;43.410;11.852;2024-01-30T12:33:07;14.52;;;8.80;;
42146;SDS011;27815;43.410;11.852;2024-01-30T12:37:12;13.85;;;8.45;;
42146;SDS011;27815;43.410;11.852;2024-01-30T12:41:16;15.88;;;9.13;;
42146;SDS011;27815;43.410;11.852;2024-01-30T12:45:22;13.48;;;6.82;;
42146;SDS011;27815;43.410;11.852;2024-01-30T12:49:35;11.50;;;6.72;;
42146;SDS011;27815;43.410;11.852;2024-01-30T12:53:38;9.90;;;5.38;;
42146;SDS011;27815;43.410;11.852;2024-01-30T12:57:41;8.48;;;5.07;;
42146;SDS011;27815;43.410;11.852;2024-01-30T13:01:45;10.18;;;5.68;;
42146;SDS011;27815;43.410;11.852;2024-01-30T13:05:48;10.35;;;5.82;;
42146;SDS011;27815;43.410;11.852;2024-01-30T13:09:51;8.32;;;4.97;;
42146;SDS011;27815;43.410;11.852;2024-01-30T13:13:55;6.93;;;4.22;;
42146;SDS011;27815;43.410;11.852;2024-01-30T13:17:58;7.10;;;3.90;;
42146;SDS011;27815;43.410;11.852;2024-01-30T13:22:02;7.30;;;4.40;;
42146;SDS011;27815;43.410;11.852;2024-01-30T13:26:05;6.88;;;4.35;;
42146;SDS011;27815;43.410;11.852;2024-01-30T13:30:09;6.65;;;3.78;;
42146;SDS011;27815;43.410;11.852;2024-01-30T13:34:13;6.63;;;4.05;;
42146;SDS011;27815;43.410;11.852;2024-01-30T13:38:17;8.48;;;4.40;;
42146;SDS011;27815;43.410;11.852;2024-01-30T13:42:20;8.80;;;3.60;;
42146;SDS011;27815;43.410;11.852;2024-01-30T13:46:24;6.93;;;4.18;;
42146;SDS011;27815;43.410;11.852;2024-01-30T13:50:27;6.35;;;3.40;;
42146;SDS011;27815;43.410;11.852;2024-01-30T13:54:30;7.63;;;4.13;;
42146;SDS011;27815;43.410;11.852;2024-01-30T13:58:33;5.93;;;3.67;;
42146;SDS011;27815;43.410;11.852;2024-01-30T14:02:38;8.55;;;4.65;;
42146;SDS011;27815;43.410;11.852;2024-01-30T14:06:54;7.50;;;4.00;;
42146;SDS011;27815;43.410;11.852;2024-01-30T14:11:06;6.30;;;3.17;;
42146;SDS011;27815;43.410;11.852;2024-01-30T14:15:09;6.63;;;3.70;;
42146;SDS011;27815;43.410;11.852;2024-01-30T14:19:28;7.20;;;3.58;;
42146;SDS011;27815;43.410;11.852;2024-01-30T14:23:32;6.22;;;3.20;;
42146;SDS011;27815;43.410;11.852;2024-01-30T14:27:35;6.30;;;3.63;;
42146;SDS011;27815;43.410;11.852;2024-01-30T14:31:39;8.27;;;4.10;;
42146;SDS011;27815;43.410;11.852;2024-01-30T14:35:45;6.82;;;3.65;;
42146;SDS011;27815;43.410;11.852;2024-01-30T14:39:52;5.32;;;2.97;;
42146;SDS011;27815;43.410;11.852;2024-01-30T14:43:55;6.88;;;3.65;;
42146;SDS011;27815;43.410;11.852;2024-01-30T14:47:58;6.70;;;3.20;;
42146;SDS011;27815;43.410;11.852;2024-01-30T14:52:02;9.27;;;5.15;;
42146;SDS011;27815;43.410;11.852;2024-01-30T14:56:06;14.57;;;6.38;;
42146;SDS011;27815;43.410;11.852;2024-01-30T15:00:10;9.20;;;5.75;;
42146;SDS011;27815;43.410;11.852;2024-01-30T15:04:14;10.02;;;4.82;;
42146;SDS011;27815;43.410;11.852;2024-01-30T15:08:17;10.15;;;5.55;;
42146;SDS011;27815;43.410;11.852;2024-01-30T15:12:20;9.48;;;6.18;;
42146;SDS011;27815;43.410;11.852;2024-01-30T15:16:38;13.07;;;8.15;;
42146;SDS011;27815;43.410;11.852;2024-01-30T15:20:53;14.73;;;7.97;;
42146;SDS011;27815;43.410;11.852;2024-01-30T15:24:56;14.95;;;9.18;;
42146;SDS011;27815;43.410;11.852;2024-01-30T15:29:11;14.83;;;7.33;;
42146;SDS011;27815;43.410;11.852;2024-01-30T15:33:15;11.60;;;6.78;;
42146;SDS011;27815;43.410;11.852;2024-01-30T15:37:18;12.32;;;7.00;;
42146;SDS011;27815;43.410;11.852;2024-01-30T15:41:30;11.73;;;7.72;;
42146;SDS011;27815;43.410;11.852;2024-01-30T15:45:37;16.05;;;8.73;;
42146;SDS011;27815;43.410;11.852;2024-01-30T15:49:40;35.67;;;18.08;;
42146;SDS011;27815;43.410;11.852;2024-01-30T15:53:44;82.50;;;38.83;;
42146;SDS011;27815;43.410;11.852;2024-01-30T15:57:47;80.82;;;39.88;;
42146;SDS011;27815;43.410;11.852;2024-01-30T16:01:50;46.50;;;25.38;;
42146;SDS011;27815;43.410;11.852;2024-01-30T16:05:53;29.85;;;17.02;;
42146;SDS011;27815;43.410;11.852;2024-01-30T16:09:57;23.30;;;13.63;;
42146;SDS011;27815;43.410;11.852;2024-01-30T16:14:00;17.63;;;9.75;;
42146;SDS011;27815;43.410;11.852;2024-01-30T16:18:03;12.90;;;7.43;;
42146;SDS011;27815;43.410;11.852;2024-01-30T16:22:06;12.07;;;6.35;;
42146;SDS011;27815;43.410;11.852;2024-01-30T16:26:09;10.57;;;5.53;;
42146;SDS011;27815;43.410;11.852;2024-01-30T16:30:14;7.68;;;4.13;;
42146;SDS011;27815;43.410;11.852;2024-01-30T16:34:21;7.63;;;3.78;;
42146;SDS011;27815;43.410;11.852;2024-01-30T16:38:25;8.13;;;3.67;;
42146;SDS011;27815;43.410;11.852;2024-01-30T16:42:30;6.80;;;3.55;;
42146;SDS011;27815;43.410;11.852;2024-01-30T16:46:34;6.43;;;2.95;;
42146;SDS011;27815;43.410;11.852;2024-01-30T16:50:40;6.75;;;3.08;;
42146;SDS011;27815;43.410;11.852;2024-01-30T16:54:43;5.00;;;2.55;;
42146;SDS011;27815;43.410;11.852;2024-01-30T16:58:52;6.03;;;2.90;;
42146;SDS011;27815;43.410;11.852;2024-01-30T17:02:58;7.00;;;3.55;;
42146;SDS011;27815;43.410;11.852;2024-01-30T17:07:05;9.07;;;4.30;;
42146;SDS011;27815;43.410;11.852;2024-01-30T17:11:10;5.78;;;3.53;;
42146;SDS011;27815;43.410;11.852;2024-01-30T17:15:16;6.13;;;3.05;;
42146;SDS011;27815;43.410;11.852;2024-01-30T17:19:21;9.50;;;3.88;;
42146;SDS011;27815;43.410;11.852;2024-01-30T17:23:30;8.00;;;2.92;;
42146;SDS011;27815;43.410;11.852;2024-01-30T17:27:42;4.90;;;2.25;;
42146;SDS011;27815;43.410;11.852;2024-01-30T17:31:49;6.22;;;1.98;;
42146;SDS011;27815;43.410;11.852;2024-01-30T17:35:58;4.93;;;2.60;;
42146;SDS011;27815;43.410;11.852;2024-01-30T17:40:01;4.13;;;2.00;;
42146;SDS011;27815;43.410;11.852;2024-01-30T17:44:06;4.82;;;2.10;;
42146;SDS011;27815;43.410;11.852;2024-01-30T17:48:11;5.95;;;3.05;;
42146;SDS011;27815;43.410;11.852;2024-01-30T17:52:15;4.70;;;2.00;;
42146;SDS011;27815;43.410;11.852;2024-01-30T17:56:19;4.47;;;2.10;;
42146;SDS011;27815;43.410;11.852;2024-01-30T18:00:22;4.20;;;1.90;;
42146;SDS011;27815;43.410;11.852;2024-01-30T18:04:28;4.57;;;2.40;;
42146;SDS011;27815;43.410;11.852;2024-01-30T18:08:34;5.80;;;2.77;;
42146;SDS011;27815;43.410;11.852;2024-01-30T18:12:40;6.70;;;2.87;;
42146;SDS011;27815;43.410;11.852;2024-01-30T18:16:50;6.13;;;3.47;;
42146;SDS011;27815;43.410;11.852;2024-01-30T18:21:00;6.65;;;3.20;;
42146;SDS011;27815;43.410;11.852;2024-01-30T18:25:08;5.55;;;2.30;;
42146;SDS011;27815;43.410;11.852;2024-01-30T18:29:14;4.25;;;2.17;;
42146;SDS011;27815;43.410;11.852;2024-01-30T18:33:20;5.30;;;2.40;;
42146;SDS011;27815;43.410;11.852;2024-01-30T18:37:25;5.05;;;2.38;;
42146;SDS011;27815;43.410;11.852;2024-01-30T18:41:31;4.13;;;1.90;;
42146;SDS011;27815;43.410;11.852;2024-01-30T18:49:43;6.47;;;2.38;;
42146;SDS011;27815;43.410;11.852;2024-01-30T18:53:52;4.18;;;2.65;;
42146;SDS011;27815;43.410;11.852;2024-01-30T18:57:58;5.88;;;2.28;;
42146;SDS011;27815;43.410;11.852;2024-01-30T19:02:04;4.60;;;2.23;;
42146;SDS011;27815;43.410;11.852;2024-01-30T19:06:10;7.60;;;4.07;;
42146;SDS011;27815;43.410;11.852;2024-01-30T19:10:15;11.18;;;4.57;;
42146;SDS011;27815;43.410;11.852;2024-01-30T19:14:33;8.15;;;4.18;;
42146;SDS011;27815;43.410;11.852;2024-01-30T19:18:40;5.78;;;3.00;;
42146;SDS011;27815;43.410;11.852;2024-01-30T19:22:43;7.63;;;4.20;;
42146;SDS011;27815;43.410;11.852;2024-01-30T19:26:48;7.13;;;3.97;;
42146;SDS011;27815;43.410;11.852;2024-01-30T19:30:54;9.50;;;5.07;;
42146;SDS011;27815;43.410;11.852;2024-01-30T19:34:57;8.07;;;4.10;;
42146;SDS011;27815;43.410;11.852;2024-01-30T19:39:02;8.35;;;5.32;;
42146;SDS011;27815;43.410;11.852;2024-01-30T19:43:06;10.40;;;6.45;;
42146;SDS011;27815;43.410;11.852;2024-01-30T19:47:10;10.75;;;6.20;;
42146;SDS011;27815;43.410;11.852;2024-01-30T19:51:17;7.53;;;4.18;;
42146;SDS011;27815;43.410;11.852;2024-01-30T19:55:21;6.10;;;3.70;;
42146;SDS011;27815;43.410;11.852;2024-01-30T19:59:30;6.72;;;3.42;;
42146;SDS011;27815;43.410;11.852;2024-01-30T20:03:35;8.07;;;3.72;;
42146;SDS011;27815;43.410;11.852;2024-01-30T20:07:40;9.68;;;3.92;;
42146;SDS011;27815;43.410;11.852;2024-01-30T20:11:43;7.65;;;4.05;;
42146;SDS011;27815;43.410;11.852;2024-01-30T20:15:46;7.47;;;3.78;;
42146;SDS011;27815;43.410;11.852;2024-01-30T20:19:51;7.35;;;3.53;;
42146;SDS011;27815;43.410;11.852;2024-01-30T20:23:59;10.38;;;5.47;;
42146;SDS011;27815;43.410;11.852;2024-01-30T20:28:02;9.40;;;4.75;;
42146;SDS011;27815;43.410;11.852;2024-01-30T20:32:05;7.45;;;4.50;;
42146;SDS011;27815;43.410;11.852;2024-01-30T20:36:08;7.68;;;4.10;;
42146;SDS011;27815;43.410;11.852;2024-01-30T20:40:11;9.02;;;3.40;;
42146;SDS011;27815;43.410;11.852;2024-01-30T20:44:16;6.72;;;3.65;;
42146;SDS011;27815;43.410;11.852;2024-01-30T20:48:22;17.35;;;10.63;;
42146;SDS011;27815;43.410;11.852;2024-01-30T20:52:29;20.40;;;11.40;;
42146;SDS011;27815;43.410;11.852;2024-01-30T20:56:32;10.00;;;5.43;;
42146;SDS011;27815;43.410;11.852;2024-01-30T21:00:35;6.90;;;3.70;;
42146;SDS011;27815;43.410;11.852;2024-01-30T21:04:39;13.20;;;6.88;;
42146;SDS011;27815;43.410;11.852;2024-01-30T21:08:43;8.57;;;4.80;;
42146;SDS011;27815;43.410;11.852;2024-01-30T21:12:46;10.73;;;5.38;;
42146;SDS011;27815;43.410;11.852;2024-01-30T21:16:49;9.10;;;5.15;;
42146;SDS011;27815;43.410;11.852;2024-01-30T21:20:53;8.15;;;4.82;;
42146;SDS011;27815;43.410;11.852;2024-01-30T21:24:57;10.07;;;4.95;;
42146;SDS011;27815;43.410;11.852;2024-01-30T21:29:01;17.77;;;9.73;;
42146;SDS011;27815;43.410;11.852;2024-01-30T21:33:05;18.45;;;9.13;;
42146;SDS011;27815;43.410;11.852;2024-01-30T21:37:09;15.50;;;9.35;;
42146;SDS011;27815;43.410;11.852;2024-01-30T21:41:13;10.77;;;4.30;;
42146;SDS011;27815;43.410;11.852;2024-01-30T21:45:20;6.57;;;3.53;;
42146;SDS011;27815;43.410;11.852;2024-01-30T21:49:25;15.20;;;7.47;;
42146;SDS011;27815;43.410;11.852;2024-01-30T21:53:30;14.63;;;6.72;;
42146;SDS011;27815;43.410;11.852;2024-01-30T21:57:33;8.80;;;4.68;;
42146;SDS011;27815;43.410;11.852;2024-01-30T22:01:36;10.48;;;4.93;;
42146;SDS011;27815;43.410;11.852;2024-01-30T22:05:41;8.38;;;4.25;;
42146;SDS011;27815;43.410;11.852;2024-01-30T22:09:44;8.77;;;3.88;;
42146;SDS011;27815;43.410;11.852;2024-01-30T22:13:47;8.73;;;3.95;;
42146;SDS011;27815;43.410;11.852;2024-01-30T22:17:50;28.00;;;12.55;;
42146;SDS011;27815;43.410;11.852;2024-01-30T22:21:52;22.65;;;10.90;;
42146;SDS011;27815;43.410;11.852;2024-01-30T22:25:56;9.00;;;4.90;;
42146;SDS011;27815;43.410;11.852;2024-01-30T22:30:01;14.80;;;5.68;;
42146;SDS011;27815;43.410;11.852;2024-01-30T22:34:04;9.70;;;3.92;;
42146;SDS011;27815;43.410;11.852;2024-01-30T22:38:07;8.10;;;3.60;;
42146;SDS011;27815;43.410;11.852;2024-01-30T22:42:11;53.42;;;18.55;;
42146;SDS011;27815;43.410;11.852;2024-01-30T22:46:14;31.98;;;13.63;;
42146;SDS011;27815;43.410;11.852;2024-01-30T22:50:19;27.55;;;16.08;;
42146;SDS011;27815;43.410;11.852;2024-01-30T22:54:23;17.95;;;7.85;;
42146;SDS011;27815;43.410;11.852;2024-01-30T22:58:25;18.85;;;7.88;;
42146;SDS011;27815;43.410;11.852;2024-01-30T23:02:29;17.65;;;7.97;;
42146;SDS011;27815;43.410;11.852;2024-01-30T23:06:33;22.83;;;11.48;;
42146;SDS011;27815;43.410;11.852;2024-01-30T23:10:36;10.30;;;5.88;;
42146;SDS011;27815;43.410;11.852;2024-01-30T23:14:39;11.98;;;5.75;;
42146;SDS011;27815;43.410;11.852;2024-01-30T23:18:43;12.20;;;5.85;;
42146;SDS011;27815;43.410;11.852;2024-01-30T23:22:46;12.23;;;6.43;;
42146;SDS011;27815;43.410;11.852;2024-01-30T23:26:49;14.27;;;6.25;;
42146;SDS011;27815;43.410;11.852;2024-01-30T23:30:52;13.88;;;7.75;;
42146;SDS011;27815;43.410;11.852;2024-01-30T23:34:59;9.82;;;4.82;;
42146;SDS011;27815;43.410;11.852;2024-01-30T23:39:02;9.25;;;3.88;;
42146;SDS011;27815;43.410;11.852;2024-01-30T23:43:05;9.75;;;4.93;;
42146;SDS011;27815;43.410;11.852;2024-01-30T23:47:09;10.77;;;5.00;;
42146;SDS011;27815;43.410;11.852;2024-01-30T23:51:12;12.55;;;7.78;;
42146;SDS011;27815;43.410;11.852;2024-01-30T23:55:15;10.20;;;5.47;;
42146;SDS011;27815;43.410;11.852;2024-01-30T23:59:18;9.27;;;5.53;;
